sensor_id;sensor_type;location;lat;lon;timestamp;P1;P2;P0
76420;PMS5003;65253;52.354;13.614;2022-12-18T00:00:00;21;12;
76420;PMS5003;65253;52.354;13.614;2022-12-18T00:04:01;23;15;
76420;PMS5003;65253;52.354;13.614;2022-12-18T00:08:02;23;14;
76420;PMS5003;65253;52.354;13.614;2022-12-18T00:12:10;17;12;
76420;PMS5003;65253;52.354;13.614;2022-12-18T00:16:01;20;13;
76420;PMS5003;65253;52.354;13.614;2022-12-18T00:20:00;20;12;
76420;PMS5003;65253;52.354;13.614;2022-12-18T00:24:00;23;11;
76420;PMS5003;65253;52.354;13.614;2022-12-18T00:28:00;23;11;
76420;PMS5003;65253;52.354;13.614;2022-12-18T00:32:00;20;15;
76420;PMS5003;65253;52.354;13.614;2022-12-18T00:36:00;18;12;
76420;PMS5003;65253;52.354;13.614;2022-12-18T00:40:00;17;11;
76420;PMS5003;65253;52.354;13.614;2022-12-18T00:44:01;17;11;
76420;PMS5003;65253;52.354;13.614;2022-12-18T00:48:01;29;16;
76420;PMS5003;65253;52.354;13.614;2022-12-18T00:52:00;30;17;
76420;PMS5003;65253;52.354;13.614;2022-12-18T00:56:00;29;20;
76420;PMS5003;65253;52.354;13.614;2022-12-18T01:00:00;28;17;
76420;PMS5003;65253;52.354;13.614;2022-12-18T01:04:01;26;15;
76420;PMS5003;65253;52.354;13.614;2022-12-18T01:08:00;20;15;
76420;PMS5003;65253;52.354;13.614;2022-12-18T01:12:00;19;13;
76420;PMS5003;65253;52.354;13.614;2022-12-18T01:16:00;30;14;
76420;PMS5003;65253;52.354;13.614;2022-12-18T01:20:00;25;12;
76420;PMS5003;65253;52.354;13.614;2022-12-18T01:24:00;10;10;
76420;PMS5003;65253;52.354;13.614;2022-12-18T01:28:00;22;15;
76420;PMS5003;65253;52.354;13.614;2022-12-18T01:32:00;27;19;
76420;PMS5003;65253;52.354;13.614;2022-12-18T01:36:00;34;15;
76420;PMS5003;65253;52.354;13.614;2022-12-18T01:40:00;25;15;
76420;PMS5003;65253;52.354;13.614;2022-12-18T01:44:00;20;13;
76420;PMS5003;65253;52.354;13.614;2022-12-18T01:48:01;20;11;
76420;PMS5003;65253;52.354;13.614;2022-12-18T01:52:00;23;14;
76420;PMS5003;65253;52.354;13.614;2022-12-18T01:56:00;26;12;
76420;PMS5003;65253;52.354;13.614;2022-12-18T02:00:01;20;11;
76420;PMS5003;65253;52.354;13.614;2022-12-18T02:08:02;29;14;
76420;PMS5003;65253;52.354;13.614;2022-12-18T02:12:03;20;15;
76420;PMS5003;65253;52.354;13.614;2022-12-18T02:16:01;26;14;
76420;PMS5003;65253;52.354;13.614;2022-12-18T02:20:04;11;9;
76420;PMS5003;65253;52.354;13.614;2022-12-18T02:24:04;24;12;
76420;PMS5003;65253;52.354;13.614;2022-12-18T02:28:02;17;13;
76420;PMS5003;65253;52.354;13.614;2022-12-18T02:32:00;21;12;
76420;PMS5003;65253;52.354;13.614;2022-12-18T02:36:00;22;11;
76420;PMS5003;65253;52.354;13.614;2022-12-18T02:40:00;25;11;
76420;PMS5003;65253;52.354;13.614;2022-12-18T02:44:01;18;10;
76420;PMS5003;65253;52.354;13.614;2022-12-18T02:48:00;26;14;
76420;PMS5003;65253;52.354;13.614;2022-12-18T02:52:02;24;14;
76420;PMS5003;65253;52.354;13.614;2022-12-18T02:56:03;21;15;
76420;PMS5003;65253;52.354;13.614;2022-12-18T03:00:01;23;12;
76420;PMS5003;65253;52.354;13.614;2022-12-18T03:04:01;21;13;
76420;PMS5003;65253;52.354;13.614;2022-12-18T03:08:01;21;13;
76420;PMS5003;65253;52.354;13.614;2022-12-18T03:12:02;24;13;
76420;PMS5003;65253;52.354;13.614;2022-12-18T03:16:00;18;13;
76420;PMS5003;65253;52.354;13.614;2022-12-18T03:20:02;12;10;
76420;PMS5003;65253;52.354;13.614;2022-12-18T03:24:00;17;12;
76420;PMS5003;65253;52.354;13.614;2022-12-18T03:28:00;27;16;
76420;PMS5003;65253;52.354;13.614;2022-12-18T03:32:02;20;13;
76420;PMS5003;65253;52.354;13.614;2022-12-18T03:36:00;19;10;
76420;PMS5003;65253;52.354;13.614;2022-12-18T03:40:00;14;9;
76420;PMS5003;65253;52.354;13.614;2022-12-18T03:44:02;21;14;
76420;PMS5003;65253;52.354;13.614;2022-12-18T03:48:01;18;10;
76420;PMS5003;65253;52.354;13.614;2022-12-18T03:52:01;14;12;
76420;PMS5003;65253;52.354;13.614;2022-12-18T03:56:00;23;13;
76420;PMS5003;65253;52.354;13.614;2022-12-18T04:00:02;23;11;
76420;PMS5003;65253;52.354;13.614;2022-12-18T04:04:00;20;14;
76420;PMS5003;65253;52.354;13.614;2022-12-18T04:08:00;20;12;
76420;PMS5003;65253;52.354;13.614;2022-12-18T04:12:00;20;14;
76420;PMS5003;65253;52.354;13.614;2022-12-18T04:16:00;21;12;
76420;PMS5003;65253;52.354;13.614;2022-12-18T04:20:00;17;13;
76420;PMS5003;65253;52.354;13.614;2022-12-18T04:24:00;18;13;
76420;PMS5003;65253;52.354;13.614;2022-12-18T04:28:00;22;14;
76420;PMS5003;65253;52.354;13.614;2022-12-18T04:32:01;19;12;
76420;PMS5003;65253;52.354;13.614;2022-12-18T04:36:00;20;15;
76420;PMS5003;65253;52.354;13.614;2022-12-18T04:40:00;31;18;
76420;PMS5003;65253;52.354;13.614;2022-12-18T04:44:00;31;18;
76420;PMS5003;65253;52.354;13.614;2022-12-18T04:48:01;25;18;
76420;PMS5003;65253;52.354;13.614;2022-12-18T04:52:00;26;17;
76420;PMS5003;65253;52.354;13.614;2022-12-18T04:56:02;25;15;
76420;PMS5003;65253;52.354;13.614;2022-12-18T05:00:00;29;14;
76420;PMS5003;65253;52.354;13.614;2022-12-18T05:04:00;28;16;
76420;PMS5003;65253;52.354;13.614;2022-12-18T05:08:00;25;18;
76420;PMS5003;65253;52.354;13.614;2022-12-18T05:12:00;28;16;
76420;PMS5003;65253;52.354;13.614;2022-12-18T05:16:01;18;13;
76420;PMS5003;65253;52.354;13.614;2022-12-18T05:20:00;20;14;
76420;PMS5003;65253;52.354;13.614;2022-12-18T05:24:00;29;17;
76420;PMS5003;65253;52.354;13.614;2022-12-18T05:28:00;23;14;
76420;PMS5003;65253;52.354;13.614;2022-12-18T05:32:00;20;13;
76420;PMS5003;65253;52.354;13.614;2022-12-18T05:36:01;22;15;
76420;PMS5003;65253;52.354;13.614;2022-12-18T05:40:00;25;14;
76420;PMS5003;65253;52.354;13.614;2022-12-18T05:44:00;21;14;
76420;PMS5003;65253;52.354;13.614;2022-12-18T05:48:00;32;19;
76420;PMS5003;65253;52.354;13.614;2022-12-18T05:52:01;30;13;
76420;PMS5003;65253;52.354;13.614;2022-12-18T05:56:00;18;17;
76420;PMS5003;65253;52.354;13.614;2022-12-18T06:00:00;30;16;
76420;PMS5003;65253;52.354;13.614;2022-12-18T06:04:00;21;15;
76420;PMS5003;65253;52.354;13.614;2022-12-18T06:08:00;18;11;
76420;PMS5003;65253;52.354;13.614;2022-12-18T06:12:00;23;13;
76420;PMS5003;65253;52.354;13.614;2022-12-18T06:16:01;22;15;
76420;PMS5003;65253;52.354;13.614;2022-12-18T06:20:00;17;13;
76420;PMS5003;65253;52.354;13.614;2022-12-18T06:24:00;31;17;
76420;PMS5003;65253;52.354;13.614;2022-12-18T06:28:00;22;15;
76420;PMS5003;65253;52.354;13.614;2022-12-18T06:32:00;19;12;
76420;PMS5003;65253;52.354;13.614;2022-12-18T06:36:02;22;15;
76420;PMS5003;65253;52.354;13.614;2022-12-18T06:40:00;27;16;
76420;PMS5003;65253;52.354;13.614;2022-12-18T06:44:00;23;14;
76420;PMS5003;65253;52.354;13.614;2022-12-18T06:48:00;24;14;
76420;PMS5003;65253;52.354;13.614;2022-12-18T06:52:00;21;14;
76420;PMS5003;65253;52.354;13.614;2022-12-18T06:56:08;19;12;
76420;PMS5003;65253;52.354;13.614;2022-12-18T07:00:00;17;13;
76420;PMS5003;65253;52.354;13.614;2022-12-18T07:04:00;22;11;
76420;PMS5003;65253;52.354;13.614;2022-12-18T07:08:00;21;15;
76420;PMS5003;65253;52.354;13.614;2022-12-18T07:12:00;19;12;
76420;PMS5003;65253;52.354;13.614;2022-12-18T07:16:04;16;12;
76420;PMS5003;65253;52.354;13.614;2022-12-18T07:20:00;21;14;
76420;PMS5003;65253;52.354;13.614;2022-12-18T07:24:00;26;16;
76420;PMS5003;65253;52.354;13.614;2022-12-18T07:28:00;19;17;
76420;PMS5003;65253;52.354;13.614;2022-12-18T07:32:00;24;14;
76420;PMS5003;65253;52.354;13.614;2022-12-18T07:36:01;21;15;
76420;PMS5003;65253;52.354;13.614;2022-12-18T07:40:00;21;12;
76420;PMS5003;65253;52.354;13.614;2022-12-18T07:44:00;15;11;
76420;PMS5003;65253;52.354;13.614;2022-12-18T07:48:00;25;13;
76420;PMS5003;65253;52.354;13.614;2022-12-18T07:52:00;27;15;
76420;PMS5003;65253;52.354;13.614;2022-12-18T07:56:11;21;11;
76420;PMS5003;65253;52.354;13.614;2022-12-18T08:00:00;23;13;
76420;PMS5003;65253;52.354;13.614;2022-12-18T08:04:00;20;14;
76420;PMS5003;65253;52.354;13.614;2022-12-18T08:08:00;17;12;
76420;PMS5003;65253;52.354;13.614;2022-12-18T08:12:00;27;14;
76420;PMS5003;65253;52.354;13.614;2022-12-18T08:16:01;29;11;
76420;PMS5003;65253;52.354;13.614;2022-12-18T08:20:00;31;17;
76420;PMS5003;65253;52.354;13.614;2022-12-18T08:24:00;23;16;
76420;PMS5003;65253;52.354;13.614;2022-12-18T08:28:00;22;16;
76420;PMS5003;65253;52.354;13.614;2022-12-18T08:32:00;24;16;
76420;PMS5003;65253;52.354;13.614;2022-12-18T08:36:00;25;15;
76420;PMS5003;65253;52.354;13.614;2022-12-18T08:40:00;29;12;
76420;PMS5003;65253;52.354;13.614;2022-12-18T08:44:00;19;15;
76420;PMS5003;65253;52.354;13.614;2022-12-18T08:48:00;34;15;
76420;PMS5003;65253;52.354;13.614;2022-12-18T08:52:00;25;18;
76420;PMS5003;65253;52.354;13.614;2022-12-18T08:56:00;34;21;
76420;PMS5003;65253;52.354;13.614;2022-12-18T09:00:00;23;14;
76420;PMS5003;65253;52.354;13.614;2022-12-18T09:04:00;17;12;
76420;PMS5003;65253;52.354;13.614;2022-12-18T09:08:00;27;14;
76420;PMS5003;65253;52.354;13.614;2022-12-18T09:12:00;39;29;
76420;PMS5003;65253;52.354;13.614;2022-12-18T09:16:00;27;20;
76420;PMS5003;65253;52.354;13.614;2022-12-18T09:20:00;26;19;
76420;PMS5003;65253;52.354;13.614;2022-12-18T09:24:00;40;23;
76420;PMS5003;65253;52.354;13.614;2022-12-18T09:28:01;21;15;
76420;PMS5003;65253;52.354;13.614;2022-12-18T09:32:00;19;15;
76420;PMS5003;65253;52.354;13.614;2022-12-18T09:36:01;36;20;
76420;PMS5003;65253;52.354;13.614;2022-12-18T09:40:00;24;18;
76420;PMS5003;65253;52.354;13.614;2022-12-18T09:44:01;28;16;
76420;PMS5003;65253;52.354;13.614;2022-12-18T09:48:00;34;16;
76420;PMS5003;65253;52.354;13.614;2022-12-18T09:52:02;23;13;
76420;PMS5003;65253;52.354;13.614;2022-12-18T09:56:00;29;17;
76420;PMS5003;65253;52.354;13.614;2022-12-18T10:00:03;36;19;
76420;PMS5003;65253;52.354;13.614;2022-12-18T10:04:00;25;17;
76420;PMS5003;65253;52.354;13.614;2022-12-18T10:08:02;32;16;
76420;PMS5003;65253;52.354;13.614;2022-12-18T10:12:02;26;13;
76420;PMS5003;65253;52.354;13.614;2022-12-18T10:16:04;24;18;
76420;PMS5003;65253;52.354;13.614;2022-12-18T10:20:01;24;16;
76420;PMS5003;65253;52.354;13.614;2022-12-18T10:24:02;18;13;
76420;PMS5003;65253;52.354;13.614;2022-12-18T10:28:06;21;13;
76420;PMS5003;65253;52.354;13.614;2022-12-18T10:32:00;30;19;
76420;PMS5003;65253;52.354;13.614;2022-12-18T10:36:00;20;14;
76420;PMS5003;65253;52.354;13.614;2022-12-18T10:40:09;30;17;
76420;PMS5003;65253;52.354;13.614;2022-12-18T10:48:00;24;16;
76420;PMS5003;65253;52.354;13.614;2022-12-18T10:52:05;31;13;
76420;PMS5003;65253;52.354;13.614;2022-12-18T10:56:00;26;16;
76420;PMS5003;65253;52.354;13.614;2022-12-18T11:00:13;32;16;
76420;PMS5003;65253;52.354;13.614;2022-12-18T11:04:07;19;13;
76420;PMS5003;65253;52.354;13.614;2022-12-18T11:08:00;21;14;
76420;PMS5003;65253;52.354;13.614;2022-12-18T11:12:01;23;16;
76420;PMS5003;65253;52.354;13.614;2022-12-18T11:16:00;27;17;
76420;PMS5003;65253;52.354;13.614;2022-12-18T11:20:00;23;12;
76420;PMS5003;65253;52.354;13.614;2022-12-18T11:24:00;18;11;
76420;PMS5003;65253;52.354;13.614;2022-12-18T11:28:01;22;14;
76420;PMS5003;65253;52.354;13.614;2022-12-18T11:36:01;34;21;
76420;PMS5003;65253;52.354;13.614;2022-12-18T11:40:01;16;12;
76420;PMS5003;65253;52.354;13.614;2022-12-18T11:44:00;36;22;
76420;PMS5003;65253;52.354;13.614;2022-12-18T11:48:01;23;19;
76420;PMS5003;65253;52.354;13.614;2022-12-18T11:52:01;18;15;
76420;PMS5003;65253;52.354;13.614;2022-12-18T11:56:04;20;15;
76420;PMS5003;65253;52.354;13.614;2022-12-18T12:00:02;21;15;
76420;PMS5003;65253;52.354;13.614;2022-12-18T12:04:05;18;15;
76420;PMS5003;65253;52.354;13.614;2022-12-18T12:08:02;32;18;
76420;PMS5003;65253;52.354;13.614;2022-12-18T12:12:04;26;20;
76420;PMS5003;65253;52.354;13.614;2022-12-18T12:16:04;21;15;
76420;PMS5003;65253;52.354;13.614;2022-12-18T12:20:02;20;13;
76420;PMS5003;65253;52.354;13.614;2022-12-18T12:24:02;30;16;
76420;PMS5003;65253;52.354;13.614;2022-12-18T12:28:04;19;14;
76420;PMS5003;65253;52.354;13.614;2022-12-18T12:32:04;24;16;
76420;PMS5003;65253;52.354;13.614;2022-12-18T12:36:02;24;18;
76420;PMS5003;65253;52.354;13.614;2022-12-18T12:40:05;24;18;
76420;PMS5003;65253;52.354;13.614;2022-12-18T12:44:01;27;15;
76420;PMS5003;65253;52.354;13.614;2022-12-18T12:48:00;21;15;
76420;PMS5003;65253;52.354;13.614;2022-12-18T12:52:03;25;15;
76420;PMS5003;65253;52.354;13.614;2022-12-18T12:56:00;26;19;
76420;PMS5003;65253;52.354;13.614;2022-12-18T13:00:01;26;18;
76420;PMS5003;65253;52.354;13.614;2022-12-18T13:04:03;35;20;
76420;PMS5003;65253;52.354;13.614;2022-12-18T13:08:01;31;21;
76420;PMS5003;65253;52.354;13.614;2022-12-18T13:12:01;30;20;
76420;PMS5003;65253;52.354;13.614;2022-12-18T13:16:03;25;19;
76420;PMS5003;65253;52.354;13.614;2022-12-18T13:20:05;27;19;
76420;PMS5003;65253;52.354;13.614;2022-12-18T13:28:04;30;19;
76420;PMS5003;65253;52.354;13.614;2022-12-18T13:32:01;23;16;
76420;PMS5003;65253;52.354;13.614;2022-12-18T13:36:01;24;16;
76420;PMS5003;65253;52.354;13.614;2022-12-18T13:40:00;23;18;
76420;PMS5003;65253;52.354;13.614;2022-12-18T13:44:10;28;16;
76420;PMS5003;65253;52.354;13.614;2022-12-18T13:48:00;28;17;
76420;PMS5003;65253;52.354;13.614;2022-12-18T13:52:00;25;18;
76420;PMS5003;65253;52.354;13.614;2022-12-18T13:56:01;23;17;
76420;PMS5003;65253;52.354;13.614;2022-12-18T14:08:02;27;16;
76420;PMS5003;65253;52.354;13.614;2022-12-18T14:12:00;14;12;
76420;PMS5003;65253;52.354;13.614;2022-12-18T14:16:04;24;12;
76420;PMS5003;65253;52.354;13.614;2022-12-18T14:20:00;21;14;
76420;PMS5003;65253;52.354;13.614;2022-12-18T14:24:04;26;21;
76420;PMS5003;65253;52.354;13.614;2022-12-18T14:28:03;23;17;
76420;PMS5003;65253;52.354;13.614;2022-12-18T14:32:04;20;16;
76420;PMS5003;65253;52.354;13.614;2022-12-18T14:36:01;19;15;
76420;PMS5003;65253;52.354;13.614;2022-12-18T14:40:11;17;12;
76420;PMS5003;65253;52.354;13.614;2022-12-18T14:44:05;25;15;
76420;PMS5003;65253;52.354;13.614;2022-12-18T14:48:00;23;14;
76420;PMS5003;65253;52.354;13.614;2022-12-18T14:52:01;33;17;
76420;PMS5003;65253;52.354;13.614;2022-12-18T14:56:01;18;15;
76420;PMS5003;65253;52.354;13.614;2022-12-18T15:00:03;35;23;
76420;PMS5003;65253;52.354;13.614;2022-12-18T15:04:00;43;30;
76420;PMS5003;65253;52.354;13.614;2022-12-18T15:08:00;31;19;
76420;PMS5003;65253;52.354;13.614;2022-12-18T15:12:00;23;17;
76420;PMS5003;65253;52.354;13.614;2022-12-18T15:16:00;28;19;
76420;PMS5003;65253;52.354;13.614;2022-12-18T15:20:02;19;15;
76420;PMS5003;65253;52.354;13.614;2022-12-18T15:24:00;30;17;
76420;PMS5003;65253;52.354;13.614;2022-12-18T15:28:00;24;18;
76420;PMS5003;65253;52.354;13.614;2022-12-18T15:32:01;26;20;
76420;PMS5003;65253;52.354;13.614;2022-12-18T15:36:01;20;15;
76420;PMS5003;65253;52.354;13.614;2022-12-18T15:40:00;22;18;
76420;PMS5003;65253;52.354;13.614;2022-12-18T15:44:00;24;17;
76420;PMS5003;65253;52.354;13.614;2022-12-18T15:48:06;23;19;
76420;PMS5003;65253;52.354;13.614;2022-12-18T15:52:01;27;22;
76420;PMS5003;65253;52.354;13.614;2022-12-18T15:56:01;25;13;
76420;PMS5003;65253;52.354;13.614;2022-12-18T16:00:00;26;16;
76420;PMS5003;65253;52.354;13.614;2022-12-18T16:04:00;28;16;
76420;PMS5003;65253;52.354;13.614;2022-12-18T16:08:00;21;13;
76420;PMS5003;65253;52.354;13.614;2022-12-18T16:12:00;25;18;
76420;PMS5003;65253;52.354;13.614;2022-12-18T16:16:00;17;16;
76420;PMS5003;65253;52.354;13.614;2022-12-18T16:20:00;23;16;
76420;PMS5003;65253;52.354;13.614;2022-12-18T16:24:00;24;17;
76420;PMS5003;65253;52.354;13.614;2022-12-18T16:28:00;20;14;
76420;PMS5003;65253;52.354;13.614;2022-12-18T16:32:00;17;13;
76420;PMS5003;65253;52.354;13.614;2022-12-18T16:36:00;21;17;
76420;PMS5003;65253;52.354;13.614;2022-12-18T16:40:00;28;22;
76420;PMS5003;65253;52.354;13.614;2022-12-18T16:44:00;24;16;
76420;PMS5003;65253;52.354;13.614;2022-12-18T16:48:00;21;16;
76420;PMS5003;65253;52.354;13.614;2022-12-18T16:52:00;22;17;
76420;PMS5003;65253;52.354;13.614;2022-12-18T16:56:00;22;14;
76420;PMS5003;65253;52.354;13.614;2022-12-18T17:00:06;25;13;
76420;PMS5003;65253;52.354;13.614;2022-12-18T17:04:01;18;15;
76420;PMS5003;65253;52.354;13.614;2022-12-18T17:08:00;21;17;
76420;PMS5003;65253;52.354;13.614;2022-12-18T17:12:05;27;18;
76420;PMS5003;65253;52.354;13.614;2022-12-18T17:16:01;20;16;
76420;PMS5003;65253;52.354;13.614;2022-12-18T17:20:00;23;15;
76420;PMS5003;65253;52.354;13.614;2022-12-18T17:24:00;28;20;
76420;PMS5003;65253;52.354;13.614;2022-12-18T17:28:00;32;19;
76420;PMS5003;65253;52.354;13.614;2022-12-18T17:32:00;28;23;
76420;PMS5003;65253;52.354;13.614;2022-12-18T17:36:00;33;19;
76420;PMS5003;65253;52.354;13.614;2022-12-18T17:40:00;30;23;
76420;PMS5003;65253;52.354;13.614;2022-12-18T17:44:01;31;19;
76420;PMS5003;65253;52.354;13.614;2022-12-18T17:48:00;27;19;
76420;PMS5003;65253;52.354;13.614;2022-12-18T17:52:00;24;19;
76420;PMS5003;65253;52.354;13.614;2022-12-18T17:56:00;33;22;
76420;PMS5003;65253;52.354;13.614;2022-12-18T18:00:00;26;20;
76420;PMS5003;65253;52.354;13.614;2022-12-18T18:04:02;31;20;
76420;PMS5003;65253;52.354;13.614;2022-12-18T18:08:00;20;14;
76420;PMS5003;65253;52.354;13.614;2022-12-18T18:12:00;31;18;
76420;PMS5003;65253;52.354;13.614;2022-12-18T18:16:00;34;23;
76420;PMS5003;65253;52.354;13.614;2022-12-18T18:20:00;45;25;
76420;PMS5003;65253;52.354;13.614;2022-12-18T18:24:00;30;20;
76420;PMS5003;65253;52.354;13.614;2022-12-18T18:28:00;31;23;
76420;PMS5003;65253;52.354;13.614;2022-12-18T18:32:00;34;23;
76420;PMS5003;65253;52.354;13.614;2022-12-18T18:36:00;37;22;
76420;PMS5003;65253;52.354;13.614;2022-12-18T18:40:00;35;20;
76420;PMS5003;65253;52.354;13.614;2022-12-18T18:44:00;36;23;
76420;PMS5003;65253;52.354;13.614;2022-12-18T18:48:00;27;21;
76420;PMS5003;65253;52.354;13.614;2022-12-18T18:52:00;35;25;
76420;PMS5003;65253;52.354;13.614;2022-12-18T18:56:11;35;23;
76420;PMS5003;65253;52.354;13.614;2022-12-18T19:00:00;30;20;
76420;PMS5003;65253;52.354;13.614;2022-12-18T19:04:00;29;20;
76420;PMS5003;65253;52.354;13.614;2022-12-18T19:08:00;33;25;
76420;PMS5003;65253;52.354;13.614;2022-12-18T19:12:00;32;21;
76420;PMS5003;65253;52.354;13.614;2022-12-18T19:16:01;31;18;
76420;PMS5003;65253;52.354;13.614;2022-12-18T19:20:00;31;21;
76420;PMS5003;65253;52.354;13.614;2022-12-18T19:24:00;34;21;
76420;PMS5003;65253;52.354;13.614;2022-12-18T19:28:00;27;19;
76420;PMS5003;65253;52.354;13.614;2022-12-18T19:32:00;35;22;
76420;PMS5003;65253;52.354;13.614;2022-12-18T19:36:00;39;25;
76420;PMS5003;65253;52.354;13.614;2022-12-18T19:40:02;27;21;
76420;PMS5003;65253;52.354;13.614;2022-12-18T19:44:08;24;21;
76420;PMS5003;65253;52.354;13.614;2022-12-18T19:48:05;24;22;
76420;PMS5003;65253;52.354;13.614;2022-12-18T19:52:00;38;23;
76420;PMS5003;65253;52.354;13.614;2022-12-18T19:56:03;38;24;
76420;PMS5003;65253;52.354;13.614;2022-12-18T20:00:00;38;28;
76420;PMS5003;65253;52.354;13.614;2022-12-18T20:04:02;42;23;
76420;PMS5003;65253;52.354;13.614;2022-12-18T20:08:01;37;26;
76420;PMS5003;65253;52.354;13.614;2022-12-18T20:12:00;34;28;
76420;PMS5003;65253;52.354;13.614;2022-12-18T20:16:00;32;23;
76420;PMS5003;65253;52.354;13.614;2022-12-18T20:20:00;37;27;
76420;PMS5003;65253;52.354;13.614;2022-12-18T20:24:00;32;23;
76420;PMS5003;65253;52.354;13.614;2022-12-18T20:28:00;31;20;
76420;PMS5003;65253;52.354;13.614;2022-12-18T20:32:00;33;24;
76420;PMS5003;65253;52.354;13.614;2022-12-18T20:36:01;31;21;
76420;PMS5003;65253;52.354;13.614;2022-12-18T20:40:01;25;18;
76420;PMS5003;65253;52.354;13.614;2022-12-18T20:44:00;27;18;
76420;PMS5003;65253;52.354;13.614;2022-12-18T20:48:00;34;24;
76420;PMS5003;65253;52.354;13.614;2022-12-18T20:52:00;35;25;
76420;PMS5003;65253;52.354;13.614;2022-12-18T20:56:04;38;26;
76420;PMS5003;65253;52.354;13.614;2022-12-18T21:00:00;33;25;
76420;PMS5003;65253;52.354;13.614;2022-12-18T21:04:00;35;21;
76420;PMS5003;65253;52.354;13.614;2022-12-18T21:08:00;28;21;
76420;PMS5003;65253;52.354;13.614;2022-12-18T21:12:00;33;22;
76420;PMS5003;65253;52.354;13.614;2022-12-18T21:16:00;33;22;
76420;PMS5003;65253;52.354;13.614;2022-12-18T21:20:00;32;21;
76420;PMS5003;65253;52.354;13.614;2022-12-18T21:24:00;33;22;
76420;PMS5003;65253;52.354;13.614;2022-12-18T21:28:00;37;27;
76420;PMS5003;65253;52.354;13.614;2022-12-18T21:32:00;40;30;
76420;PMS5003;65253;52.354;13.614;2022-12-18T21:36:02;29;22;
76420;PMS5003;65253;52.354;13.614;2022-12-18T21:40:00;29;22;
76420;PMS5003;65253;52.354;13.614;2022-12-18T21:44:00;40;23;
76420;PMS5003;65253;52.354;13.614;2022-12-18T21:48:00;31;21;
76420;PMS5003;65253;52.354;13.614;2022-12-18T21:52:00;23;20;
76420;PMS5003;65253;52.354;13.614;2022-12-18T21:56:00;31;20;
76420;PMS5003;65253;52.354;13.614;2022-12-18T22:00:00;28;20;
76420;PMS5003;65253;52.354;13.614;2022-12-18T22:04:00;27;20;
76420;PMS5003;65253;52.354;13.614;2022-12-18T22:08:00;25;20;
76420;PMS5003;65253;52.354;13.614;2022-12-18T22:12:00;28;19;
76420;PMS5003;65253;52.354;13.614;2022-12-18T22:16:00;38;20;
76420;PMS5003;65253;52.354;13.614;2022-12-18T22:20:00;28;22;
76420;PMS5003;65253;52.354;13.614;2022-12-18T22:24:01;31;21;
76420;PMS5003;65253;52.354;13.614;2022-12-18T22:28:00;21;16;
76420;PMS5003;65253;52.354;13.614;2022-12-18T22:32:00;31;18;
76420;PMS5003;65253;52.354;13.614;2022-12-18T22:36:03;27;22;
76420;PMS5003;65253;52.354;13.614;2022-12-18T22:40:04;37;20;
76420;PMS5003;65253;52.354;13.614;2022-12-18T22:44:00;18;15;
76420;PMS5003;65253;52.354;13.614;2022-12-18T22:48:00;37;22;
76420;PMS5003;65253;52.354;13.614;2022-12-18T22:52:00;29;19;
76420;PMS5003;65253;52.354;13.614;2022-12-18T22:56:00;26;19;
76420;PMS5003;65253;52.354;13.614;2022-12-18T23:00:00;33;20;
76420;PMS5003;65253;52.354;13.614;2022-12-18T23:04:00;30;17;
76420;PMS5003;65253;52.354;13.614;2022-12-18T23:08:00;36;23;
76420;PMS5003;65253;52.354;13.614;2022-12-18T23:12:00;22;21;
76420;PMS5003;65253;52.354;13.614;2022-12-18T23:16:02;28;18;
76420;PMS5003;65253;52.354;13.614;2022-12-18T23:20:00;24;20;
76420;PMS5003;65253;52.354;13.614;2022-12-18T23:24:00;25;18;
76420;PMS5003;65253;52.354;13.614;2022-12-18T23:28:00;30;20;
76420;PMS5003;65253;52.354;13.614;2022-12-18T23:32:00;29;22;
76420;PMS5003;65253;52.354;13.614;2022-12-18T23:36:00;24;16;
76420;PMS5003;65253;52.354;13.614;2022-12-18T23:40:00;27;20;
76420;PMS5003;65253;52.354;13.614;2022-12-18T23:44:00;31;19;
76420;PMS5003;65253;52.354;13.614;2022-12-18T23:48:00;29;18;
76420;PMS5003;65253;52.354;13.614;2022-12-18T23:52:00;25;15;
76420;PMS5003;65253;52.354;13.614;2022-12-18T23:56:04;29;21;
